Time;durP1;ratioP1;P1;durP2;ratioP2;P2;SDS_P1;SDS_P2;PMS_P1;PMS_P2;Temp;Humidity;BMP_temperature;BMP_pressure;BME280_temperature;BME280_humidity;BME280_pressure;Samples;Min_cycle;Max_cycle;Signal;HPM_P1;HPM_P2
2022/04/07 00:00:49;;;;;;;2.50;1.20;;;11.10;99.90;;;;;;5106961;27;20635;-83
2022/04/07 00:03:16;;;;;;;1.83;1.20;;;11.40;99.90;;;;;;5105017;27;20973;-83
2022/04/07 00:05:43;;;;;;;1.43;1.33;;;11.30;99.90;;;;;;5103393;27;20670;-83
2022/04/07 00:08:10;;;;;;;2.17;1.00;;;10.90;99.90;;;;;;5107480;27;20635;-83
2022/04/07 00:10:39;;;;;;;0.83;0.83;;;11.30;99.90;;;;;;5103110;27;20661;-83
2022/04/07 00:13:06;;;;;;;1.13;0.90;;;11.00;99.90;;;;;;5110320;27;20637;-83
2022/04/07 00:15:33;;;;;;;3.80;1.10;;;11.30;99.90;;;;;;5101861;27;20628;-83
2022/04/07 00:17:59;;;;;;;1.67;1.03;;;11.20;99.90;;;;;;5104393;27;20620;-83
2022/04/07 00:20:27;;;;;;;1.00;1.00;;;11.20;99.90;;;;;;5104344;27;21207;-83
2022/04/07 00:22:54;;;;;;;1.43;0.90;;;10.90;99.90;;;;;;5104822;27;20624;-83
2022/04/07 00:25:20;;;;;;;1.00;0.90;;;10.80;99.90;;;;;;5102908;27;20999;-83
2022/04/07 00:27:49;;;;;;;1.73;1.00;;;10.70;99.90;;;;;;5110143;27;20627;-83
2022/04/07 00:30:19;;;;;;;0.97;0.97;;;10.60;99.90;;;;;;5103157;27;20659;-83
2022/04/07 00:32:47;;;;;;;0.93;0.93;;;10.90;99.90;;;;;;5107623;27;20619;-83
2022/04/07 00:35:14;;;;;;;1.63;0.90;;;10.60;99.90;;;;;;5104511;27;20696;-83
2022/04/07 00:37:41;;;;;;;0.70;0.70;;;10.70;99.90;;;;;;5099702;27;20631;-83
2022/04/07 00:40:10;;;;;;;1.33;1.23;;;10.80;99.90;;;;;;5114720;27;20657;-83
2022/04/07 00:42:44;;;;;;;1.43;1.20;;;10.80;99.90;;;;;;5102805;27;20634;-83
2022/04/07 00:45:12;;;;;;;1.53;1.00;;;10.80;99.90;;;;;;5112537;27;20761;-83
2022/04/07 00:47:39;;;;;;;1.10;1.00;;;10.40;99.90;;;;;;5103709;27;20983;-83
2022/04/07 00:50:06;;;;;;;1.30;1.13;;;10.70;99.90;;;;;;5101626;27;21239;-83
2022/04/07 00:52:33;;;;;;;1.40;1.30;;;10.70;99.90;;;;;;5105956;27;20634;-83
2022/04/07 00:55:02;;;;;;;1.10;1.10;;;11.00;99.90;;;;;;5108056;27;20628;-83
2022/04/07 00:57:28;;;;;;;1.20;1.10;;;10.70;99.90;;;;;;5110037;27;21074;-83
2022/04/07 00:59:56;;;;;;;1.80;1.03;;;10.50;99.90;;;;;;5106112;27;21248;-83
2022/04/07 01:02:24;;;;;;;0.90;0.90;;;10.80;99.90;;;;;;5102938;27;20636;-83
2022/04/07 01:04:51;;;;;;;1.30;1.10;;;10.70;99.90;;;;;;5109121;27;20683;-83
2022/04/07 01:07:19;;;;;;;1.10;1.00;;;10.60;99.90;;;;;;5107667;27;20638;-83
2022/04/07 01:09:46;;;;;;;1.10;1.00;;;10.90;99.90;;;;;;5107181;27;20659;-82
2022/04/07 01:12:13;;;;;;;2.27;2.07;;;10.90;99.90;;;;;;5110873;27;20634;-82
2022/04/07 01:14:54;;;;;;;1.53;1.23;;;10.80;99.90;;;;;;5103614;27;20618;-82
2022/04/07 01:17:20;;;;;;;1.20;1.10;;;10.40;99.90;;;;;;5105722;27;21149;-82
2022/04/07 01:19:49;;;;;;;1.50;1.20;;;10.90;99.90;;;;;;5111732;27;21001;-83
2022/04/07 01:22:16;;;;;;;0.80;0.70;;;10.80;99.90;;;;;;5102891;27;20630;-82
2022/04/07 01:24:44;;;;;;;1.00;1.00;;;10.80;99.90;;;;;;5107837;27;20670;-82
2022/04/07 01:27:12;;;;;;;1.43;1.10;;;11.00;99.90;;;;;;5111376;27;20622;-82
2022/04/07 01:29:39;;;;;;;5.40;0.93;;;10.70;99.90;;;;;;5101941;27;20663;-83
2022/04/07 01:32:11;;;;;;;1.03;0.93;;;10.50;99.90;;;;;;5116788;27;20610;-84
2022/04/07 01:34:39;;;;;;;1.60;1.13;;;10.70;99.90;;;;;;5105239;27;20645;-84
2022/04/07 01:37:07;;;;;;;0.93;0.87;;;10.60;99.90;;;;;;5110611;28;20625;-84
2022/04/07 01:39:36;;;;;;;1.97;1.20;;;10.70;99.90;;;;;;5110585;27;21371;-84
2022/04/07 01:42:05;;;;;;;1.23;1.13;;;10.40;99.90;;;;;;5107356;28;20626;-82
2022/04/07 01:44:37;;;;;;;0.80;0.80;;;10.50;99.90;;;;;;5103971;27;21078;-83
2022/04/07 01:47:04;;;;;;;1.03;1.03;;;10.60;99.90;;;;;;5100120;28;21083;-83
2022/04/07 01:49:34;;;;;;;0.90;0.90;;;10.70;99.90;;;;;;5106097;27;20659;-84
2022/04/07 01:52:02;;;;;;;2.50;1.27;;;10.30;99.90;;;;;;5098385;28;20635;-84
2022/04/07 01:54:29;;;;;;;1.50;1.20;;;10.30;99.90;;;;;;5100329;28;20632;-84
2022/04/07 01:56:57;;;;;;;1.00;1.00;;;10.20;99.90;;;;;;5106934;28;20619;-84
2022/04/07 01:59:26;;;;;;;0.93;0.83;;;10.50;99.90;;;;;;5108007;27;20627;-84
2022/04/07 02:01:53;;;;;;;0.80;0.80;;;10.20;99.90;;;;;;5109683;28;20647;-84
2022/04/07 02:04:19;;;;;;;1.80;1.03;;;10.10;99.90;;;;;;5102663;28;20630;-84
2022/04/07 02:06:46;;;;;;;1.47;1.13;;;10.50;99.90;;;;;;5105239;28;21030;-84
2022/04/07 02:09:13;;;;;;;1.23;1.17;;;10.00;99.90;;;;;;5106091;28;20638;-83
2022/04/07 02:11:41;;;;;;;1.17;1.07;;;10.10;99.90;;;;;;5108847;27;20635;-84
2022/04/07 02:14:07;;;;;;;2.10;1.30;;;10.30;99.90;;;;;;5106333;28;20631;-84
2022/04/07 02:16:35;;;;;;;1.10;1.00;;;10.20;99.90;;;;;;5104963;27;21020;-83
2022/04/07 02:19:03;;;;;;;1.43;1.03;;;10.40;99.90;;;;;;5104062;28;22245;-84
2022/04/07 02:21:29;;;;;;;0.90;0.90;;;9.90;99.90;;;;;;5100983;27;20655;-83
2022/04/07 02:23:56;;;;;;;0.97;0.93;;;10.40;99.90;;;;;;5100448;27;20630;-83
2022/04/07 02:26:23;;;;;;;1.13;1.00;;;10.00;99.90;;;;;;5107645;28;20655;-84
2022/04/07 02:28:50;;;;;;;2.77;1.30;;;10.30;99.90;;;;;;5097344;28;20638;-84
2022/04/07 02:31:16;;;;;;;1.27;0.83;;;10.60;99.90;;;;;;5115679;27;21008;-84
2022/04/07 02:33:46;;;;;;;0.90;0.90;;;10.40;99.90;;;;;;5100399;27;20627;-83
2022/04/07 02:36:14;;;;;;;0.87;0.87;;;10.30;99.90;;;;;;5110936;27;21265;-84
2022/04/07 02:38:40;;;;;;;1.20;1.10;;;10.30;99.90;;;;;;5108807;27;21059;-84
2022/04/07 02:41:07;;;;;;;0.90;0.90;;;10.40;99.90;;;;;;5112102;27;20652;-84
2022/04/07 02:43:34;;;;;;;1.00;0.90;;;10.40;99.90;;;;;;5108795;27;20619;-84
2022/04/07 02:46:01;;;;;;;1.17;0.80;;;10.40;99.90;;;;;;5108224;27;21291;-83
2022/04/07 02:48:27;;;;;;;0.90;0.90;;;10.50;99.90;;;;;;5108580;27;20631;-84
2022/04/07 02:50:55;;;;;;;1.93;1.20;;;10.20;99.90;;;;;;5105362;27;21112;-84
2022/04/07 02:53:22;;;;;;;0.73;0.73;;;10.40;99.90;;;;;;5105745;27;20992;-84
2022/04/07 02:55:49;;;;;;;0.80;0.80;;;10.50;99.90;;;;;;5108847;27;20621;-84
2022/04/07 02:58:16;;;;;;;1.33;0.90;;;10.40;99.90;;;;;;5110644;27;20614;-84
2022/04/07 03:00:43;;;;;;;3.40;0.83;;;10.00;99.90;;;;;;5102939;27;20654;-83
2022/04/07 03:03:09;;;;;;;1.10;0.90;;;10.00;99.90;;;;;;5100512;27;20630;-84
2022/04/07 03:05:36;;;;;;;0.80;0.70;;;10.00;99.90;;;;;;5108770;27;21251;-84
2022/04/07 03:08:05;;;;;;;1.20;0.80;;;10.20;99.90;;;;;;5105986;27;20632;-84
2022/04/07 03:10:31;;;;;;;0.80;0.70;;;10.60;99.90;;;;;;5101608;27;20656;-84
2022/04/07 03:12:58;;;;;;;0.80;0.70;;;10.50;99.90;;;;;;5108933;27;20719;-83
2022/04/07 03:15:25;;;;;;;1.70;1.03;;;10.30;99.90;;;;;;5109157;27;20638;-84
2022/04/07 03:17:51;;;;;;;1.67;0.73;;;10.20;99.90;;;;;;5108491;27;20630;-84
2022/04/07 03:20:18;;;;;;;0.70;0.70;;;10.20;99.90;;;;;;5109752;27;20999;-84
2022/04/07 03:22:45;;;;;;;2.27;0.80;;;10.70;99.90;;;;;;5112860;27;20626;-84
2022/04/07 03:25:13;;;;;;;1.13;0.80;;;10.40;99.90;;;;;;5108502;27;20686;-84
2022/04/07 03:27:40;;;;;;;0.70;0.63;;;10.50;99.90;;;;;;5107087;27;20619;-84
2022/04/07 03:30:08;;;;;;;0.70;0.60;;;10.20;99.90;;;;;;5099979;27;20657;-83
2022/04/07 03:32:35;;;;;;;1.40;1.07;;;10.50;99.90;;;;;;5110001;27;20623;-84
2022/04/07 03:35:01;;;;;;;1.03;1.03;;;10.60;99.90;;;;;;5105117;27;20628;-84
2022/04/07 03:37:28;;;;;;;1.13;1.03;;;10.60;99.90;;;;;;5100985;27;20694;-83
2022/04/07 03:39:55;;;;;;;0.90;0.90;;;10.60;99.90;;;;;;5110228;27;20660;-84
2022/04/07 03:42:23;;;;;;;1.50;0.70;;;10.60;99.90;;;;;;5112884;27;20622;-84
2022/04/07 03:44:50;;;;;;;1.00;0.50;;;10.70;99.90;;;;;;5100981;27;20628;-84
2022/04/07 03:47:16;;;;;;;0.80;0.60;;;10.60;99.90;;;;;;5107320;27;20719;-84
2022/04/07 03:49:43;;;;;;;2.20;0.60;;;10.20;99.90;;;;;;5099030;27;20658;-84
2022/04/07 03:52:10;;;;;;;0.77;0.57;;;10.30;99.90;;;;;;5108815;27;20668;-84
2022/04/07 03:54:37;;;;;;;0.70;0.70;;;10.40;99.90;;;;;;5108940;27;20615;-84
2022/04/07 03:57:04;;;;;;;0.70;0.70;;;10.60;99.90;;;;;;5111776;27;20634;-84
2022/04/07 03:59:35;;;;;;;0.50;0.50;;;10.60;99.90;;;;;;5106141;27;20638;-84
2022/04/07 04:02:02;;;;;;;1.37;0.60;;;10.30;99.90;;;;;;5105897;27;21333;-83
2022/04/07 04:04:29;;;;;;;2.60;0.60;;;10.50;99.90;;;;;;5104110;27;20630;-83
2022/04/07 04:06:55;;;;;;;0.70;0.50;;;10.60;99.90;;;;;;5108921;27;20663;-84
2022/04/07 04:09:22;;;;;;;1.07;0.70;;;10.20;99.90;;;;;;5108471;27;21183;-84
2022/04/07 04:11:49;;;;;;;1.53;0.80;;;10.30;99.90;;;;;;5109965;27;20626;-84
2022/04/07 04:14:16;;;;;;;1.17;0.67;;;10.60;99.90;;;;;;5115699;27;20626;-83
2022/04/07 04:16:44;;;;;;;1.10;0.60;;;10.60;99.90;;;;;;5105102;27;20631;-83
2022/04/07 04:19:11;;;;;;;0.80;0.50;;;10.50;99.90;;;;;;5116911;27;20679;-84
2022/04/07 04:21:38;;;;;;;0.97;0.70;;;10.70;99.90;;;;;;5102963;27;20985;-84
2022/04/07 04:24:05;;;;;;;1.40;0.60;;;10.50;99.90;;;;;;5101317;27;20622;-83
2022/04/07 04:26:32;;;;;;;0.90;0.60;;;10.70;99.90;;;;;;5107793;27;20679;-84
2022/04/07 04:28:58;;;;;;;0.70;0.70;;;10.20;99.90;;;;;;5105846;27;21014;-84
2022/04/07 04:31:25;;;;;;;1.10;0.70;;;10.10;99.90;;;;;;5105926;27;20674;-84
2022/04/07 04:33:54;;;;;;;0.70;0.70;;;10.80;99.90;;;;;;5106404;27;20635;-83
2022/04/07 04:36:21;;;;;;;0.70;0.67;;;10.50;99.90;;;;;;5106859;27;20627;-84
2022/04/07 04:38:48;;;;;;;0.80;0.80;;;10.00;99.90;;;;;;5104624;27;20638;-83
2022/04/07 04:41:15;;;;;;;1.70;1.00;;;10.60;99.90;;;;;;5102738;27;21277;-84
2022/04/07 04:43:42;;;;;;;1.87;0.80;;;10.00;99.90;;;;;;5105970;27;21001;-83
2022/04/07 04:46:09;;;;;;;0.67;0.67;;;10.50;99.90;;;;;;5106630;27;20664;-83
2022/04/07 04:48:38;;;;;;;2.17;1.37;;;10.40;99.90;;;;;;5114597;27;21097;-83
2022/04/07 04:51:06;;;;;;;1.07;0.87;;;10.50;99.90;;;;;;5101007;27;21206;-82
2022/04/07 04:53:33;;;;;;;1.13;0.80;;;10.20;99.90;;;;;;5109632;27;20626;-83
2022/04/07 04:55:59;;;;;;;2.67;2.33;;;10.30;99.90;;;;;;5101686;27;20627;-83
2022/04/07 04:58:26;;;;;;;2.37;2.00;;;10.00;99.90;;;;;;5113720;27;21152;-82
2022/04/07 05:00:53;;;;;;;2.07;1.20;;;10.50;99.90;;;;;;5105520;27;21049;-83
2022/04/07 05:03:19;;;;;;;1.83;1.47;;;10.50;99.90;;;;;;5109998;27;20607;-83
2022/04/07 05:05:46;;;;;;;3.90;0.90;;;10.60;99.90;;;;;;5105767;27;21221;-83
2022/04/07 05:08:14;;;;;;;1.00;0.70;;;10.30;99.90;;;;;;5101165;27;20634;-83
2022/04/07 05:10:41;;;;;;;1.03;0.80;;;10.20;99.90;;;;;;5112829;27;21208;-83
2022/04/07 05:13:08;;;;;;;2.40;0.70;;;10.10;99.90;;;;;;5107211;27;21172;-83
2022/04/07 05:15:35;;;;;;;0.90;0.80;;;10.20;99.90;;;;;;5107142;27;20629;-83
2022/04/07 05:18:02;;;;;;;2.53;0.50;;;10.60;99.90;;;;;;5107953;27;20630;-85
2022/04/07 05:20:29;;;;;;;0.60;0.50;;;10.40;99.90;;;;;;5105925;27;20651;-85
2022/04/07 05:22:56;;;;;;;0.90;0.90;;;10.50;99.90;;;;;;5112417;27;20631;-85
2022/04/07 05:25:24;;;;;;;1.27;1.10;;;10.20;99.90;;;;;;5111203;27;20667;-83
2022/04/07 05:27:51;;;;;;;1.70;0.80;;;10.70;99.90;;;;;;5107700;27;21136;-83
2022/04/07 05:30:18;;;;;;;1.53;1.07;;;10.30;99.90;;;;;;5100978;27;20650;-83
2022/04/07 05:32:46;;;;;;;0.77;0.77;;;10.40;99.90;;;;;;5110223;27;20654;-84
2022/04/07 05:35:13;;;;;;;0.70;0.50;;;10.60;99.90;;;;;;5104406;28;20669;-84
2022/04/07 05:37:41;;;;;;;0.50;0.50;;;10.20;99.90;;;;;;5103857;28;20688;-84
2022/04/07 05:40:11;;;;;;;0.83;0.70;;;10.30;99.90;;;;;;5104977;28;20657;-83
2022/04/07 05:42:40;;;;;;;1.03;0.70;;;10.60;99.90;;;;;;5099868;27;20615;-84
2022/04/07 05:45:07;;;;;;;1.13;0.60;;;10.70;99.90;;;;;;5098872;28;20977;-84
2022/04/07 05:47:39;;;;;;;1.23;0.60;;;10.50;99.90;;;;;;5097765;28;20713;-83
2022/04/07 05:50:07;;;;;;;0.70;0.60;;;10.60;99.90;;;;;;5105861;28;20652;-84
2022/04/07 05:52:34;;;;;;;0.70;0.60;;;10.60;99.90;;;;;;5100279;27;20991;-83
2022/04/07 05:55:00;;;;;;;0.50;0.50;;;10.70;99.90;;;;;;5107921;27;20647;-84
2022/04/07 05:57:28;;;;;;;1.30;0.70;;;10.40;99.90;;;;;;5110178;27;20606;-84
2022/04/07 05:59:56;;;;;;;0.40;0.40;;;10.70;99.90;;;;;;5103358;28;20646;-83
2022/04/07 06:02:22;;;;;;;2.33;0.83;;;10.70;99.90;;;;;;5102715;28;20662;-83
2022/04/07 06:04:49;;;;;;;6.63;0.60;;;10.80;99.90;;;;;;5104167;28;20712;-84
2022/04/07 06:07:16;;;;;;;0.57;0.57;;;10.90;99.90;;;;;;5109382;27;21311;-84
2022/04/07 06:09:42;;;;;;;0.80;0.67;;;11.10;99.90;;;;;;5109797;27;20658;-83
2022/04/07 06:12:09;;;;;;;1.10;0.70;;;10.60;99.90;;;;;;5112765;27;20616;-84
2022/04/07 06:14:36;;;;;;;0.90;0.90;;;10.70;99.90;;;;;;5109054;27;20973;-84
2022/04/07 06:17:04;;;;;;;0.70;0.70;;;10.80;99.90;;;;;;5108917;27;21046;-83
2022/04/07 06:19:31;;;;;;;0.60;0.60;;;11.10;99.90;;;;;;5116468;27;20649;-84
2022/04/07 06:21:58;;;;;;;8.77;7.97;;;10.90;99.90;;;;;;5109134;27;20624;-84
2022/04/07 06:24:25;;;;;;;2.30;1.00;;;11.20;99.90;;;;;;5110380;27;21157;-84
2022/04/07 06:26:51;;;;;;;4.13;1.00;;;10.90;99.90;;;;;;5112722;27;20662;-84
2022/04/07 06:29:18;;;;;;;0.70;0.40;;;11.50;99.90;;;;;;5110463;27;20618;-84
2022/04/07 06:31:45;;;;;;;0.90;0.53;;;11.10;99.90;;;;;;5113432;27;22428;-83
2022/04/07 06:34:13;;;;;;;0.70;0.50;;;11.30;99.90;;;;;;5114906;27;20613;-83
2022/04/07 06:36:40;;;;;;;0.87;0.60;;;11.40;99.90;;;;;;5106321;27;20983;-83
2022/04/07 06:39:06;;;;;;;0.73;0.60;;;11.60;99.90;;;;;;5107912;27;20622;-83
2022/04/07 06:41:34;;;;;;;1.73;0.50;;;11.60;99.90;;;;;;5111407;27;20647;-83
2022/04/07 06:44:00;;;;;;;1.53;0.60;;;11.60;99.90;;;;;;5105890;27;20638;-83
2022/04/07 06:46:27;;;;;;;5.03;3.37;;;11.40;99.90;;;;;;5105112;27;20661;-83
2022/04/07 06:48:54;;;;;;;2.07;1.40;;;11.70;99.90;;;;;;5116060;27;20631;-83
2022/04/07 06:51:22;;;;;;;13.00;10.47;;;11.70;99.90;;;;;;5110438;27;20655;-83
2022/04/07 06:53:49;;;;;;;2.40;1.57;;;11.70;99.90;;;;;;5108171;27;20622;-83
2022/04/07 06:56:15;;;;;;;1.07;0.70;;;11.50;99.90;;;;;;5108295;27;20631;-83
2022/04/07 06:58:42;;;;;;;1.57;0.70;;;11.70;99.90;;;;;;5106813;27;20658;-83
2022/04/07 07:01:09;;;;;;;4.77;0.60;;;11.60;99.90;;;;;;5116918;27;20668;-83
2022/04/07 07:03:36;;;;;;;0.87;0.40;;;11.80;99.90;;;;;;5108492;27;20651;-83
2022/04/07 07:06:03;;;;;;;0.30;0.30;;;11.80;99.90;;;;;;5108462;27;20741;-83
2022/04/07 07:08:31;;;;;;;2.13;0.50;;;11.80;99.90;;;;;;5107067;27;20627;-83
2022/04/07 07:10:58;;;;;;;1.60;0.80;;;11.50;99.90;;;;;;5102849;27;20680;-84
2022/04/07 07:13:24;;;;;;;2.80;0.60;;;11.60;99.90;;;;;;5106898;27;21176;-83
2022/04/07 07:15:52;;;;;;;1.80;0.43;;;11.90;99.90;;;;;;5107833;27;20615;-83
2022/04/07 07:18:18;;;;;;;0.50;0.40;;;11.90;99.90;;;;;;5104519;27;20627;-83
2022/04/07 07:20:45;;;;;;;0.63;0.43;;;11.90;99.90;;;;;;5105926;27;20658;-83
2022/04/07 07:23:12;;;;;;;1.17;0.57;;;11.90;99.90;;;;;;5114055;27;21175;-83
2022/04/07 07:25:40;;;;;;;0.50;0.40;;;12.00;99.90;;;;;;5109491;27;21044;-83
2022/04/07 07:28:09;;;;;;;0.97;0.43;;;12.00;99.90;;;;;;5106350;27;20674;-83
2022/04/07 07:30:36;;;;;;;0.70;0.53;;;12.10;99.90;;;;;;5103821;27;20675;-83
2022/04/07 07:33:03;;;;;;;0.67;0.60;;;11.80;99.90;;;;;;5107670;27;20635;-83
2022/04/07 07:35:29;;;;;;;1.50;0.40;;;12.20;99.90;;;;;;5111401;27;20658;-83
2022/04/07 07:37:58;;;;;;;1.27;0.50;;;12.10;99.90;;;;;;5102165;27;20615;-83
2022/04/07 07:40:27;;;;;;;0.40;0.30;;;12.30;99.90;;;;;;5110504;27;21047;-83
2022/04/07 07:42:56;;;;;;;0.50;0.43;;;12.10;99.90;;;;;;5099337;27;20631;-83
2022/04/07 07:45:24;;;;;;;0.90;0.50;;;12.50;99.90;;;;;;5098336;27;20969;-83
2022/04/07 07:47:52;;;;;;;0.70;0.40;;;12.60;99.90;;;;;;5108749;27;20658;-83
2022/04/07 07:50:19;;;;;;;2.37;0.50;;;12.60;99.90;;;;;;5113200;27;20654;-83
2022/04/07 07:52:46;;;;;;;1.20;0.50;;;12.70;99.90;;;;;;5101127;27;20623;-83
2022/04/07 07:55:13;;;;;;;1.50;0.60;;;12.80;99.90;;;;;;5106942;27;20625;-82
2022/04/07 07:57:40;;;;;;;0.50;0.40;;;12.80;99.90;;;;;;5105316;27;20615;-82
2022/04/07 08:00:12;;;;;;;2.07;0.60;;;12.80;99.90;;;;;;5105634;27;20681;-82
2022/04/07 08:02:39;;;;;;;0.40;0.30;;;12.90;99.90;;;;;;5101515;27;21035;-82
2022/04/07 08:05:07;;;;;;;0.60;0.50;;;12.90;99.90;;;;;;5113597;27;20637;-82
2022/04/07 08:07:38;;;;;;;1.33;0.40;;;12.90;99.90;;;;;;5108221;27;20635;-82
2022/04/07 08:10:05;;;;;;;1.07;0.40;;;12.80;99.90;;;;;;5107845;27;21025;-84
2022/04/07 08:12:32;;;;;;;2.10;0.40;;;12.70;99.90;;;;;;5103249;27;20649;-83
2022/04/07 08:14:59;;;;;;;0.50;0.50;;;12.70;99.90;;;;;;5111244;27;20622;-83
2022/04/07 08:17:27;;;;;;;0.87;0.73;;;12.30;99.90;;;;;;5108759;27;20614;-83
2022/04/07 08:19:53;;;;;;;1.23;0.40;;;12.70;99.90;;;;;;5103845;27;20651;-83
2022/04/07 08:22:20;;;;;;;0.40;0.30;;;12.30;99.90;;;;;;5112321;27;20708;-83
2022/04/07 08:24:47;;;;;;;0.80;0.80;;;12.80;99.90;;;;;;5107421;27;21180;-83
2022/04/07 08:27:14;;;;;;;0.70;0.70;;;13.00;99.90;;;;;;5108272;27;20668;-83
2022/04/07 08:29:40;;;;;;;1.53;0.70;;;13.00;99.90;;;;;;5096645;27;20652;-83
2022/04/07 08:32:08;;;;;;;1.83;0.50;;;13.00;99.90;;;;;;5106382;27;20690;-83
2022/04/07 08:34:36;;;;;;;1.50;0.90;;;13.00;99.90;;;;;;5107323;27;20635;-83
2022/04/07 08:37:03;;;;;;;1.80;0.73;;;13.10;99.90;;;;;;5106214;27;20635;-82
2022/04/07 08:39:30;;;;;;;4.33;0.70;;;13.10;99.90;;;;;;5107643;27;20626;-82
2022/04/07 08:41:57;;;;;;;1.63;0.60;;;13.30;99.90;;;;;;5108899;27;20619;-83
2022/04/07 08:44:31;;;;;;;1.60;0.43;;;13.30;99.90;;;;;;5101170;27;21066;-83
2022/04/07 08:46:58;;;;;;;2.03;0.60;;;13.30;99.90;;;;;;5108338;27;20662;-82
2022/04/07 08:49:28;;;;;;;0.53;0.47;;;13.30;99.90;;;;;;5108859;27;20655;-82
2022/04/07 08:51:56;;;;;;;0.87;0.60;;;13.30;99.90;;;;;;5108346;27;20622;-83
2022/04/07 08:54:24;;;;;;;1.03;0.60;;;13.30;99.90;;;;;;5105426;27;20623;-83
2022/04/07 08:56:51;;;;;;;1.77;0.57;;;13.30;99.90;;;;;;5111164;27;21047;-83
2022/04/07 08:59:18;;;;;;;1.40;0.60;;;13.30;99.90;;;;;;5103928;27;20987;-83
2022/04/07 09:01:45;;;;;;;1.13;0.50;;;13.40;99.90;;;;;;5103997;27;20638;-83
2022/04/07 09:04:13;;;;;;;1.27;0.37;;;13.50;99.90;;;;;;5104816;27;20651;-83
2022/04/07 09:06:41;;;;;;;0.87;0.73;;;13.50;99.90;;;;;;5110893;27;20982;-82
2022/04/07 09:09:16;;;;;;;0.50;0.40;;;13.60;99.90;;;;;;5104450;27;20722;-84
2022/04/07 09:11:43;;;;;;;1.80;0.70;;;13.50;99.90;;;;;;5110100;27;20733;-83
2022/04/07 09:14:11;;;;;;;2.30;1.00;;;13.50;99.90;;;;;;5107823;27;20618;-83
2022/04/07 09:16:39;;;;;;;0.87;0.60;;;13.60;99.90;;;;;;5106624;27;20660;-83
2022/04/07 09:19:07;;;;;;;1.00;0.40;;;13.60;99.90;;;;;;5102519;27;20638;-83
2022/04/07 09:21:35;;;;;;;0.70;0.40;;;13.60;99.90;;;;;;5110168;27;20717;-83
2022/04/07 09:24:05;;;;;;;1.53;0.40;;;13.50;99.90;;;;;;5106571;27;20630;-83
2022/04/07 09:26:35;;;;;;;0.97;0.40;;;13.50;99.90;;;;;;5102177;27;20802;-83
2022/04/07 09:29:08;;;;;;;0.93;0.40;;;13.60;99.90;;;;;;5104531;27;20708;-82
2022/04/07 09:31:39;;;;;;;0.50;0.40;;;13.60;99.90;;;;;;5102235;28;20660;-82
2022/04/07 09:34:07;;;;;;;2.17;0.67;;;13.70;99.90;;;;;;5108880;27;21064;-82
2022/04/07 09:36:34;;;;;;;3.70;0.37;;;13.70;99.90;;;;;;5104144;27;21200;-82
2022/04/07 09:39:02;;;;;;;0.70;0.50;;;13.80;99.90;;;;;;5103018;28;20615;-84
2022/04/07 09:41:30;;;;;;;0.70;0.30;;;13.90;99.90;;;;;;5104742;28;20733;-84
2022/04/07 09:44:00;;;;;;;0.60;0.30;;;13.90;99.90;;;;;;5102909;27;20620;-83
2022/04/07 09:46:33;;;;;;;0.50;0.50;;;13.80;99.90;;;;;;5109999;27;20661;-83
2022/04/07 09:49:05;;;;;;;0.40;0.30;;;13.70;99.90;;;;;;5119641;27;20762;-83
2022/04/07 09:51:38;;;;;;;0.50;0.40;;;13.70;99.90;;;;;;5113038;27;20749;-83
2022/04/07 09:54:10;;;;;;;0.50;0.37;;;13.60;99.90;;;;;;5105433;27;21099;-83
2022/04/07 09:56:37;;;;;;;0.73;0.40;;;13.50;99.90;;;;;;5111853;27;21120;-83
2022/04/07 09:59:06;;;;;;;2.90;0.50;;;13.50;99.90;;;;;;5101816;27;20651;-83
2022/04/07 10:01:33;;;;;;;0.60;0.47;;;13.50;99.90;;;;;;5109457;27;20643;-83
2022/04/07 10:04:02;;;;;;;1.73;0.57;;;13.60;99.90;;;;;;5104032;27;20666;-83
2022/04/07 10:06:31;;;;;;;0.70;0.40;;;13.80;99.90;;;;;;5112437;27;20626;-83
2022/04/07 10:09:00;;;;;;;0.50;0.40;;;14.00;99.90;;;;;;5108266;27;20727;-83
2022/04/07 10:11:29;;;;;;;1.37;0.40;;;14.20;99.90;;;;;;5109024;27;20621;-83
2022/04/07 10:13:57;;;;;;;1.47;0.77;;;14.20;99.90;;;;;;5111154;27;20618;-82
2022/04/07 10:16:26;;;;;;;0.93;0.60;;;14.40;99.90;;;;;;5113432;27;20995;-83
2022/04/07 10:18:57;;;;;;;0.70;0.60;;;14.50;99.90;;;;;;5105310;27;20655;-83
2022/04/07 10:21:37;;;;;;;0.60;0.40;;;14.50;99.60;;;;;;5114919;27;20749;-84
2022/04/07 10:24:17;;;;;;;1.97;0.63;;;14.50;99.80;;;;;;5108366;27;20643;-84
2022/04/07 10:26:45;;;;;;;1.00;0.33;;;14.50;99.70;;;;;;5103963;27;20622;-84
2022/04/07 10:29:21;;;;;;;0.50;0.30;;;14.50;99.40;;;;;;5103287;27;20670;-83
2022/04/07 10:32:19;;;;;;;1.03;0.30;;;14.40;99.40;;;;;;5106580;27;22101;-83
2022/04/07 10:34:57;;;;;;;1.40;0.50;;;14.40;99.10;;;;;;5101583;27;20639;-83
2022/04/07 10:37:31;;;;;;;1.13;0.37;;;14.40;98.50;;;;;;5105435;27;20632;-83
2022/04/07 10:40:37;;;;;;;1.50;0.40;;;14.50;98.40;;;;;;5106128;27;20654;-83
2022/04/07 10:43:18;;;;;;;1.17;0.73;;;14.40;98.20;;;;;;5110362;27;20639;-85
2022/04/07 10:45:46;;;;;;;0.70;0.50;;;14.40;99.00;;;;;;5102387;27;20996;-82
2022/04/07 10:48:28;;;;;;;1.83;0.40;;;14.50;98.60;;;;;;5103637;27;20645;-85
2022/04/07 10:50:57;;;;;;;0.77;0.30;;;14.50;98.80;;;;;;5103111;27;20800;-84
2022/04/07 10:53:27;;;;;;;1.17;0.40;;;14.50;98.70;;;;;;5108423;27;20997;-84
2022/04/07 10:55:55;;;;;;;0.30;0.30;;;14.50;99.00;;;;;;5103372;27;21025;-84
2022/04/07 10:58:37;;;;;;;0.50;0.50;;;14.50;99.00;;;;;;5101731;27;20979;-84
2022/04/07 11:01:04;;;;;;;0.87;0.47;;;14.70;99.00;;;;;;5107278;27;21100;-84
2022/04/07 11:03:33;;;;;;;0.80;0.43;;;14.90;98.40;;;;;;5105215;27;20627;-84
2022/04/07 11:06:01;;;;;;;1.00;0.30;;;15.00;98.30;;;;;;5111578;27;20637;-84
2022/04/07 11:08:30;;;;;;;2.63;0.40;;;15.10;98.20;;;;;;5107143;27;20654;-84
2022/04/07 11:10:57;;;;;;;0.70;0.50;;;15.10;98.30;;;;;;5106455;27;20618;-84
2022/04/07 11:13:42;;;;;;;0.70;0.40;;;15.20;98.20;;;;;;5106809;27;20635;-84
2022/04/07 11:16:22;;;;;;;0.97;0.40;;;15.30;98.10;;;;;;5116103;27;20610;-84
2022/04/07 11:19:16;;;;;;;3.07;0.40;;;15.40;98.10;;;;;;5104266;27;20739;-84
2022/04/07 11:21:49;;;;;;;0.40;0.33;;;15.40;98.20;;;;;;5098193;27;20623;-84
2022/04/07 11:24:23;;;;;;;0.40;0.30;;;15.60;97.50;;;;;;5111351;27;20614;-83
2022/04/07 11:27:33;;;;;;;0.50;0.40;;;15.80;96.90;;;;;;5110417;27;21024;-84
2022/04/07 11:30:08;;;;;;;0.40;0.33;;;15.90;96.50;;;;;;5101824;27;20655;-83
2022/04/07 11:32:38;;;;;;;0.83;0.47;;;15.70;96.30;;;;;;5107681;27;20615;-83
2022/04/07 11:35:17;;;;;;;1.33;0.30;;;15.80;96.50;;;;;;5117373;27;20638;-83
2022/04/07 11:37:45;;;;;;;0.73;0.30;;;15.70;96.20;;;;;;5112788;27;20650;-83
2022/04/07 11:40:12;;;;;;;0.40;0.30;;;15.80;95.90;;;;;;5111036;27;20642;-83
2022/04/07 11:42:40;;;;;;;0.57;0.30;;;15.80;95.90;;;;;;5109317;27;20727;-83
2022/04/07 11:45:08;;;;;;;0.40;0.30;;;15.70;96.00;;;;;;5106495;27;20736;-83
2022/04/07 11:47:37;;;;;;;2.90;0.40;;;15.80;96.20;;;;;;5110742;27;20631;-83
2022/04/07 11:50:05;;;;;;;0.40;0.30;;;15.80;95.70;;;;;;5114362;27;20682;-83
2022/04/07 11:52:35;;;;;;;0.47;0.30;;;15.80;95.20;;;;;;5100565;27;20984;-84
2022/04/07 11:55:04;;;;;;;0.40;0.30;;;15.80;95.60;;;;;;5109273;27;20635;-83
2022/04/07 11:57:33;;;;;;;1.80;0.50;;;16.00;95.80;;;;;;5116130;27;20633;-83
2022/04/07 12:00:02;;;;;;;0.40;0.30;;;16.10;95.20;;;;;;5111753;27;20654;-83
2022/04/07 12:02:29;;;;;;;0.57;0.30;;;16.20;95.50;;;;;;5116831;27;21133;-83
2022/04/07 12:05:01;;;;;;;0.80;0.60;;;16.10;95.00;;;;;;5118598;27;20981;-83
2022/04/07 12:07:28;;;;;;;1.43;0.30;;;16.10;95.40;;;;;;5119068;27;20722;-83
2022/04/07 12:09:57;;;;;;;0.40;0.30;;;16.20;95.30;;;;;;5117467;27;21078;-83
2022/04/07 12:12:25;;;;;;;0.40;0.30;;;16.10;95.30;;;;;;5109793;27;20623;-83
2022/04/07 12:14:52;;;;;;;0.30;0.30;;;16.20;95.20;;;;;;5114726;27;20722;-83
2022/04/07 12:17:22;;;;;;;1.63;0.40;;;16.10;95.20;;;;;;5104805;27;20696;-83
2022/04/07 12:19:50;;;;;;;0.30;0.20;;;15.90;95.50;;;;;;5108583;27;20651;-82
2022/04/07 12:22:17;;;;;;;0.93;0.40;;;15.60;95.90;;;;;;5109161;27;20626;-83
2022/04/07 12:25:00;;;;;;;0.83;0.40;;;15.50;96.70;;;;;;5107541;27;21185;-82
2022/04/07 12:27:30;;;;;;;1.07;0.60;;;15.40;96.90;;;;;;5110917;27;20607;-82
2022/04/07 12:29:57;;;;;;;1.50;0.40;;;15.40;97.50;;;;;;5105348;27;21303;-83
2022/04/07 12:32:24;;;;;;;1.60;1.50;;;15.30;97.50;;;;;;5109791;27;21091;-82
2022/04/07 12:34:55;;;;;;;0.60;0.40;;;15.20;98.30;;;;;;5110764;27;20631;-82
2022/04/07 12:37:28;;;;;;;1.27;0.30;;;15.00;98.70;;;;;;5096578;27;20624;-83
2022/04/07 12:39:55;;;;;;;0.70;0.40;;;15.00;99.30;;;;;;5105776;27;20642;-83
2022/04/07 12:42:24;;;;;;;2.00;0.70;;;14.90;99.00;;;;;;5107878;27;20617;-83
2022/04/07 12:45:04;;;;;;;0.40;0.30;;;14.90;99.70;;;;;;5102404;27;20623;-83
2022/04/07 12:47:32;;;;;;;0.73;0.43;;;14.80;99.40;;;;;;5108611;27;20623;-83
2022/04/07 12:50:01;;;;;;;0.50;0.30;;;14.80;99.70;;;;;;5101292;27;20671;-83
2022/04/07 12:52:37;;;;;;;0.87;0.30;;;14.80;99.60;;;;;;5105290;27;20703;-83
2022/04/07 12:55:05;;;;;;;0.50;0.40;;;14.70;99.80;;;;;;5108545;27;20626;-84